sensor_id;sensor_type;location;lat;lon;timestamp;pressure;altitude;pressure_sealevel;temperature;humidity
55517;BME280;41724;51.176;-0.708;2022-11-20T00:00:17;100717.72;;;7.74;51.51
55517;BME280;41724;51.176;-0.708;2022-11-20T00:02:44;100715.80;;;7.94;51.00
55517;BME280;41724;51.176;-0.708;2022-11-20T00:05:11;100708.84;;;7.64;50.94
55517;BME280;41724;51.176;-0.708;2022-11-20T00:07:38;100706.80;;;8.08;50.64
55517;BME280;41724;51.176;-0.708;2022-11-20T00:10:06;100707.19;;;8.15;51.08
55517;BME280;41724;51.176;-0.708;2022-11-20T00:12:33;100709.42;;;8.38;51.01
55517;BME280;41724;51.176;-0.708;2022-11-20T00:15:00;100702.76;;;8.17;51.14
55517;BME280;41724;51.176;-0.708;2022-11-20T00:17:27;100698.38;;;8.02;51.71
55517;BME280;41724;51.176;-0.708;2022-11-20T00:19:53;100693.74;;;8.14;51.31
55517;BME280;41724;51.176;-0.708;2022-11-20T00:22:21;100690.62;;;7.93;51.48
55517;BME280;41724;51.176;-0.708;2022-11-20T00:24:48;100687.34;;;8.21;51.56
55517;BME280;41724;51.176;-0.708;2022-11-20T00:27:15;100679.16;;;8.19;51.72
55517;BME280;41724;51.176;-0.708;2022-11-20T00:29:41;100677.25;;;8.34;51.60
55517;BME280;41724;51.176;-0.708;2022-11-20T00:32:09;100675.33;;;8.21;51.58
55517;BME280;41724;51.176;-0.708;2022-11-20T00:34:36;100673.66;;;8.23;51.37
55517;BME280;41724;51.176;-0.708;2022-11-20T00:37:03;100669.96;;;8.32;51.29
55517;BME280;41724;51.176;-0.708;2022-11-20T00:39:30;100664.54;;;8.18;51.72
55517;BME280;41724;51.176;-0.708;2022-11-20T00:41:57;100663.42;;;7.91;51.41
55517;BME280;41724;51.176;-0.708;2022-11-20T00:44:24;100668.31;;;8.18;51.64
55517;BME280;41724;51.176;-0.708;2022-11-20T00:46:52;100667.36;;;7.70;52.32
55517;BME280;41724;51.176;-0.708;2022-11-20T00:49:19;100659.68;;;7.94;52.15
55517;BME280;41724;51.176;-0.708;2022-11-20T00:51:51;100656.10;;;8.25;51.83
55517;BME280;41724;51.176;-0.708;2022-11-20T00:54:19;100652.26;;;8.22;51.96
55517;BME280;41724;51.176;-0.708;2022-11-20T00:56:46;100650.93;;;7.87;52.27
55517;BME280;41724;51.176;-0.708;2022-11-20T00:59:14;100648.57;;;8.31;51.50
55517;BME280;41724;51.176;-0.708;2022-11-20T01:01:40;100648.15;;;8.09;51.58
55517;BME280;41724;51.176;-0.708;2022-11-20T01:04:08;100641.74;;;8.45;51.69
55517;BME280;41724;51.176;-0.708;2022-11-20T01:06:37;100637.89;;;8.50;51.81
55517;BME280;41724;51.176;-0.708;2022-11-20T01:09:06;100640.99;;;8.19;52.21
55517;BME280;41724;51.176;-0.708;2022-11-20T01:11:35;100638.23;;;8.59;52.50
55517;BME280;41724;51.176;-0.708;2022-11-20T01:14:05;100633.89;;;8.67;52.46
55517;BME280;41724;51.176;-0.708;2022-11-20T01:16:34;100631.47;;;8.29;52.25
55517;BME280;41724;51.176;-0.708;2022-11-20T01:19:04;100626.85;;;8.57;52.35
55517;BME280;41724;51.176;-0.708;2022-11-20T01:21:33;100617.97;;;8.41;52.35
55517;BME280;41724;51.176;-0.708;2022-11-20T01:24:02;100610.87;;;8.65;52.82
55517;BME280;41724;51.176;-0.708;2022-11-20T01:26:32;100609.44;;;8.31;53.09
55517;BME280;41724;51.176;-0.708;2022-11-20T01:29:02;100609.81;;;8.87;53.62
55517;BME280;41724;51.176;-0.708;2022-11-20T01:31:30;100608.69;;;8.63;53.48
55517;BME280;41724;51.176;-0.708;2022-11-20T01:33:59;100600.77;;;8.95;53.05
55517;BME280;41724;51.176;-0.708;2022-11-20T01:36:29;100593.43;;;8.81;53.03
55517;BME280;41724;51.176;-0.708;2022-11-20T01:38:58;100590.38;;;8.92;53.14
55517;BME280;41724;51.176;-0.708;2022-11-20T01:41:28;100585.43;;;8.93;53.44
55517;BME280;41724;51.176;-0.708;2022-11-20T01:43:55;100580.63;;;8.99;53.47
55517;BME280;41724;51.176;-0.708;2022-11-20T01:46:23;100580.12;;;9.05;53.55
55517;BME280;41724;51.176;-0.708;2022-11-20T01:48:54;100576.66;;;8.82;54.30
55517;BME280;41724;51.176;-0.708;2022-11-20T01:51:29;100569.40;;;9.30;53.90
55517;BME280;41724;51.176;-0.708;2022-11-20T01:54:04;100563.80;;;9.21;54.72
55517;BME280;41724;51.176;-0.708;2022-11-20T01:56:35;100560.37;;;9.38;54.45
55517;BME280;41724;51.176;-0.708;2022-11-20T01:59:05;100559.53;;;9.43;54.45
55517;BME280;41724;51.176;-0.708;2022-11-20T02:01:35;100558.98;;;9.52;54.29
55517;BME280;41724;51.176;-0.708;2022-11-20T02:04:03;100553.51;;;9.54;54.61
55517;BME280;41724;51.176;-0.708;2022-11-20T02:06:32;100552.15;;;9.70;54.67
55517;BME280;41724;51.176;-0.708;2022-11-20T02:09:03;100548.66;;;9.83;54.14
55517;BME280;41724;51.176;-0.708;2022-11-20T02:11:31;100548.91;;;9.60;54.16
55517;BME280;41724;51.176;-0.708;2022-11-20T02:13:58;100544.90;;;9.61;53.73
55517;BME280;41724;51.176;-0.708;2022-11-20T02:16:28;100543.81;;;10.15;54.01
55517;BME280;41724;51.176;-0.708;2022-11-20T02:18:58;100548.00;;;9.93;53.83
55517;BME280;41724;51.176;-0.708;2022-11-20T02:21:33;100551.34;;;9.87;53.67
55517;BME280;41724;51.176;-0.708;2022-11-20T02:24:07;100550.22;;;9.66;55.19
55517;BME280;41724;51.176;-0.708;2022-11-20T02:26:40;100547.97;;;9.48;55.19
55517;BME280;41724;51.176;-0.708;2022-11-20T02:29:08;100551.44;;;9.82;54.57
55517;BME280;41724;51.176;-0.708;2022-11-20T02:31:40;100545.54;;;9.16;55.87
55517;BME280;41724;51.176;-0.708;2022-11-20T02:34:08;100544.74;;;9.01;56.87
55517;BME280;41724;51.176;-0.708;2022-11-20T02:36:37;100536.35;;;9.28;56.85
55517;BME280;41724;51.176;-0.708;2022-11-20T02:39:06;100528.48;;;9.50;57.61
55517;BME280;41724;51.176;-0.708;2022-11-20T02:41:35;100519.86;;;9.35;57.25
55517;BME280;41724;51.176;-0.708;2022-11-20T02:44:04;100508.16;;;9.26;58.08
55517;BME280;41724;51.176;-0.708;2022-11-20T02:46:31;100498.74;;;9.40;57.51
55517;BME280;41724;51.176;-0.708;2022-11-20T02:48:58;100501.27;;;9.85;56.97
55517;BME280;41724;51.176;-0.708;2022-11-20T02:51:26;100497.30;;;9.63;56.78
55517;BME280;41724;51.176;-0.708;2022-11-20T02:53:53;100497.63;;;10.00;56.16
55517;BME280;41724;51.176;-0.708;2022-11-20T02:56:21;100494.09;;;9.85;56.25
55517;BME280;41724;51.176;-0.708;2022-11-20T02:58:48;100489.25;;;9.95;56.52
55517;BME280;41724;51.176;-0.708;2022-11-20T03:01:15;100486.11;;;9.86;56.50
55517;BME280;41724;51.176;-0.708;2022-11-20T03:03:42;100477.60;;;10.24;56.39
55517;BME280;41724;51.176;-0.708;2022-11-20T03:06:09;100476.68;;;10.34;56.49
55517;BME280;41724;51.176;-0.708;2022-11-20T03:08:36;100471.54;;;10.01;57.09
55517;BME280;41724;51.176;-0.708;2022-11-20T03:11:05;100470.02;;;10.02;56.56
55517;BME280;41724;51.176;-0.708;2022-11-20T03:13:33;100465.73;;;10.21;56.84
55517;BME280;41724;51.176;-0.708;2022-11-20T03:16:06;100463.08;;;10.25;56.49
55517;BME280;41724;51.176;-0.708;2022-11-20T03:18:33;100463.09;;;10.46;56.35
55517;BME280;41724;51.176;-0.708;2022-11-20T03:21:00;100462.25;;;10.40;56.64
55517;BME280;41724;51.176;-0.708;2022-11-20T03:23:29;100454.26;;;10.43;56.09
55517;BME280;41724;51.176;-0.708;2022-11-20T03:26:16;100446.89;;;10.43;56.71
55517;BME280;41724;51.176;-0.708;2022-11-20T03:28:49;100438.04;;;10.72;56.54
55517;BME280;41724;51.176;-0.708;2022-11-20T03:31:18;100435.79;;;10.40;56.34
55517;BME280;41724;51.176;-0.708;2022-11-20T03:33:46;100433.37;;;10.57;56.21
55517;BME280;41724;51.176;-0.708;2022-11-20T03:36:15;100427.06;;;10.57;56.54
55517;BME280;41724;51.176;-0.708;2022-11-20T03:38:42;100425.70;;;10.55;56.22
55517;BME280;41724;51.176;-0.708;2022-11-20T03:41:12;100421.90;;;10.37;56.42
55517;BME280;41724;51.176;-0.708;2022-11-20T03:43:40;100417.62;;;10.57;56.45
55517;BME280;41724;51.176;-0.708;2022-11-20T03:46:08;100415.77;;;10.43;56.40
55517;BME280;41724;51.176;-0.708;2022-11-20T03:48:35;100411.17;;;10.67;56.27
55517;BME280;41724;51.176;-0.708;2022-11-20T03:51:11;100405.88;;;10.51;56.73
55517;BME280;41724;51.176;-0.708;2022-11-20T03:53:40;100404.80;;;10.54;56.88
55517;BME280;41724;51.176;-0.708;2022-11-20T03:56:09;100397.05;;;10.56;56.37
55517;BME280;41724;51.176;-0.708;2022-11-20T03:58:38;100391.93;;;10.62;56.47
55517;BME280;41724;51.176;-0.708;2022-11-20T04:01:08;100385.80;;;10.53;57.41
55517;BME280;41724;51.176;-0.708;2022-11-20T04:03:35;100381.91;;;10.51;57.11
55517;BME280;41724;51.176;-0.708;2022-11-20T04:06:05;100375.94;;;10.60;57.30
55517;BME280;41724;51.176;-0.708;2022-11-20T04:08:32;100370.49;;;10.66;57.12
55517;BME280;41724;51.176;-0.708;2022-11-20T04:11:09;100370.97;;;10.62;57.02
55517;BME280;41724;51.176;-0.708;2022-11-20T04:13:36;100365.16;;;10.64;56.83
55517;BME280;41724;51.176;-0.708;2022-11-20T04:16:04;100361.62;;;10.70;57.21
55517;BME280;41724;51.176;-0.708;2022-11-20T04:18:32;100358.55;;;10.54;57.02
55517;BME280;41724;51.176;-0.708;2022-11-20T04:20:59;100356.23;;;10.72;57.13
55517;BME280;41724;51.176;-0.708;2022-11-20T04:23:27;100352.17;;;10.69;57.26
55517;BME280;41724;51.176;-0.708;2022-11-20T04:26:00;100351.87;;;11.02;57.05
55517;BME280;41724;51.176;-0.708;2022-11-20T04:28:27;100348.56;;;10.84;57.07
55517;BME280;41724;51.176;-0.708;2022-11-20T04:30:53;100345.09;;;10.72;57.10
55517;BME280;41724;51.176;-0.708;2022-11-20T04:33:21;100338.67;;;10.77;57.22
55517;BME280;41724;51.176;-0.708;2022-11-20T04:35:48;100343.12;;;10.51;57.12
55517;BME280;41724;51.176;-0.708;2022-11-20T04:38:15;100344.54;;;10.74;57.13
55517;BME280;41724;51.176;-0.708;2022-11-20T04:40:42;100339.39;;;10.77;57.56
55517;BME280;41724;51.176;-0.708;2022-11-20T04:43:09;100335.22;;;10.74;57.60
55517;BME280;41724;51.176;-0.708;2022-11-20T04:45:36;100333.90;;;10.55;57.75
55517;BME280;41724;51.176;-0.708;2022-11-20T04:48:04;100333.01;;;10.53;57.46
55517;BME280;41724;51.176;-0.708;2022-11-20T04:50:31;100339.67;;;10.74;57.88
55517;BME280;41724;51.176;-0.708;2022-11-20T04:52:59;100335.99;;;10.67;58.25
55517;BME280;41724;51.176;-0.708;2022-11-20T04:55:26;100325.86;;;10.80;58.14
55517;BME280;41724;51.176;-0.708;2022-11-20T04:57:53;100320.02;;;10.70;58.42
55517;BME280;41724;51.176;-0.708;2022-11-20T05:00:20;100322.24;;;10.61;58.40
55517;BME280;41724;51.176;-0.708;2022-11-20T05:02:47;100308.72;;;10.44;58.83
55517;BME280;41724;51.176;-0.708;2022-11-20T05:05:15;100293.27;;;10.50;59.35
55517;BME280;41724;51.176;-0.708;2022-11-20T05:07:41;100292.34;;;10.57;59.11
55517;BME280;41724;51.176;-0.708;2022-11-20T05:10:09;100288.88;;;10.60;58.94
55517;BME280;41724;51.176;-0.708;2022-11-20T05:12:36;100288.55;;;9.82;60.93
55517;BME280;41724;51.176;-0.708;2022-11-20T05:15:04;100284.82;;;10.13;60.76
55517;BME280;41724;51.176;-0.708;2022-11-20T05:17:31;100282.88;;;9.63;61.18
55517;BME280;41724;51.176;-0.708;2022-11-20T05:19:59;100285.30;;;9.98;60.80
55517;BME280;41724;51.176;-0.708;2022-11-20T05:22:26;100277.71;;;10.11;60.28
55517;BME280;41724;51.176;-0.708;2022-11-20T05:24:54;100272.63;;;9.95;61.43
55517;BME280;41724;51.176;-0.708;2022-11-20T05:27:20;100264.05;;;10.27;60.54
55517;BME280;41724;51.176;-0.708;2022-11-20T05:29:48;100266.60;;;9.37;61.70
55517;BME280;41724;51.176;-0.708;2022-11-20T05:32:15;100265.25;;;9.69;61.74
55517;BME280;41724;51.176;-0.708;2022-11-20T05:34:42;100261.16;;;9.72;62.13
55517;BME280;41724;51.176;-0.708;2022-11-20T05:37:09;100257.84;;;10.40;59.96
55517;BME280;41724;51.176;-0.708;2022-11-20T05:39:37;100257.03;;;10.24;60.38
55517;BME280;41724;51.176;-0.708;2022-11-20T05:42:04;100257.33;;;10.38;60.17
55517;BME280;41724;51.176;-0.708;2022-11-20T05:44:31;100253.46;;;10.51;59.99
55517;BME280;41724;51.176;-0.708;2022-11-20T05:46:58;100250.26;;;10.62;59.65
55517;BME280;41724;51.176;-0.708;2022-11-20T05:49:25;100241.89;;;10.62;59.93
55517;BME280;41724;51.176;-0.708;2022-11-20T05:51:52;100236.98;;;10.70;59.97
55517;BME280;41724;51.176;-0.708;2022-11-20T05:54:19;100233.01;;;10.60;60.63
55517;BME280;41724;51.176;-0.708;2022-11-20T05:56:47;100230.49;;;10.58;60.67
55517;BME280;41724;51.176;-0.708;2022-11-20T05:59:14;100226.69;;;10.21;62.02
55517;BME280;41724;51.176;-0.708;2022-11-20T06:01:41;100226.35;;;10.43;61.92
55517;BME280;41724;51.176;-0.708;2022-11-20T06:04:08;100212.39;;;10.68;61.45
55517;BME280;41724;51.176;-0.708;2022-11-20T06:06:35;100206.84;;;10.71;60.51
55517;BME280;41724;51.176;-0.708;2022-11-20T06:09:02;100198.80;;;11.04;60.54
55517;BME280;41724;51.176;-0.708;2022-11-20T06:11:29;100196.75;;;11.12;60.42
55517;BME280;41724;51.176;-0.708;2022-11-20T06:13:56;100193.82;;;10.70;60.47
55517;BME280;41724;51.176;-0.708;2022-11-20T06:16:24;100188.64;;;11.03;60.67
55517;BME280;41724;51.176;-0.708;2022-11-20T06:18:50;100181.99;;;10.64;60.57
55517;BME280;41724;51.176;-0.708;2022-11-20T06:21:20;100181.14;;;10.78;60.99
55517;BME280;41724;51.176;-0.708;2022-11-20T06:23:48;100177.10;;;10.70;60.63
55517;BME280;41724;51.176;-0.708;2022-11-20T06:26:17;100167.66;;;11.05;60.39
55517;BME280;41724;51.176;-0.708;2022-11-20T06:28:45;100162.39;;;11.02;59.99
55517;BME280;41724;51.176;-0.708;2022-11-20T06:31:14;100156.29;;;11.19;60.47
55517;BME280;41724;51.176;-0.708;2022-11-20T06:33:42;100152.40;;;11.29;60.87
55517;BME280;41724;51.176;-0.708;2022-11-20T06:36:10;100149.85;;;11.08;60.14
55517;BME280;41724;51.176;-0.708;2022-11-20T06:38:38;100144.73;;;11.23;59.92
55517;BME280;41724;51.176;-0.708;2022-11-20T06:41:07;100152.82;;;11.31;59.63
55517;BME280;41724;51.176;-0.708;2022-11-20T06:43:37;100225.15;;;8.60;68.37
55517;BME280;41724;51.176;-0.708;2022-11-20T06:46:04;100213.33;;;8.24;72.63
55517;BME280;41724;51.176;-0.708;2022-11-20T06:48:32;100204.39;;;8.99;71.99
55517;BME280;41724;51.176;-0.708;2022-11-20T06:50:59;100193.91;;;9.41;70.38
55517;BME280;41724;51.176;-0.708;2022-11-20T06:53:30;100191.14;;;9.99;68.51
55517;BME280;41724;51.176;-0.708;2022-11-20T06:55:58;100191.22;;;10.63;66.59
55517;BME280;41724;51.176;-0.708;2022-11-20T06:58:27;100194.75;;;10.92;65.83
55517;BME280;41724;51.176;-0.708;2022-11-20T07:00:58;100193.38;;;11.03;65.25
55517;BME280;41724;51.176;-0.708;2022-11-20T07:03:25;100192.52;;;11.03;64.18
55517;BME280;41724;51.176;-0.708;2022-11-20T07:05:54;100193.72;;;10.64;65.75
55517;BME280;41724;51.176;-0.708;2022-11-20T07:08:22;100196.25;;;11.10;64.92
55517;BME280;41724;51.176;-0.708;2022-11-20T07:10:49;100197.61;;;10.71;65.41
55517;BME280;41724;51.176;-0.708;2022-11-20T07:13:16;100203.04;;;10.97;64.45
55517;BME280;41724;51.176;-0.708;2022-11-20T07:15:43;100196.27;;;10.98;63.68
55517;BME280;41724;51.176;-0.708;2022-11-20T07:18:10;100192.84;;;11.04;63.39
55517;BME280;41724;51.176;-0.708;2022-11-20T07:20:37;100188.16;;;11.23;62.99
55517;BME280;41724;51.176;-0.708;2022-11-20T07:23:04;100184.21;;;11.15;63.66
55517;BME280;41724;51.176;-0.708;2022-11-20T07:25:31;100193.41;;;10.90;63.88
55517;BME280;41724;51.176;-0.708;2022-11-20T07:27:59;100195.53;;;10.81;63.72
55517;BME280;41724;51.176;-0.708;2022-11-20T07:30:27;100196.30;;;10.90;64.19
55517;BME280;41724;51.176;-0.708;2022-11-20T07:32:56;100202.08;;;10.36;65.71
55517;BME280;41724;51.176;-0.708;2022-11-20T07:35:24;100205.62;;;10.52;65.25
55517;BME280;41724;51.176;-0.708;2022-11-20T07:37:51;100213.24;;;10.45;64.77
55517;BME280;41724;51.176;-0.708;2022-11-20T07:40:18;100216.85;;;10.15;65.84
55517;BME280;41724;51.176;-0.708;2022-11-20T07:42:50;100218.96;;;9.99;66.74
55517;BME280;41724;51.176;-0.708;2022-11-20T07:45:18;100215.18;;;9.76;68.55
55517;BME280;41724;51.176;-0.708;2022-11-20T07:47:45;100223.10;;;9.61;69.11
55517;BME280;41724;51.176;-0.708;2022-11-20T07:50:12;100233.02;;;9.29;73.05
55517;BME280;41724;51.176;-0.708;2022-11-20T07:52:40;100241.75;;;8.29;77.78
55517;BME280;41724;51.176;-0.708;2022-11-20T07:55:08;100245.16;;;8.93;75.74
55517;BME280;41724;51.176;-0.708;2022-11-20T07:57:35;100243.48;;;9.26;73.90
55517;BME280;41724;51.176;-0.708;2022-11-20T08:00:04;100246.34;;;9.79;73.13
55517;BME280;41724;51.176;-0.708;2022-11-20T08:02:31;100261.01;;;8.29;77.73
55517;BME280;41724;51.176;-0.708;2022-11-20T08:04:58;100267.01;;;9.43;74.12
55517;BME280;41724;51.176;-0.708;2022-11-20T08:07:25;100269.36;;;9.50;72.60
55517;BME280;41724;51.176;-0.708;2022-11-20T08:09:52;100278.55;;;9.28;72.77
55517;BME280;41724;51.176;-0.708;2022-11-20T08:12:21;100286.30;;;9.91;70.34
55517;BME280;41724;51.176;-0.708;2022-11-20T08:14:47;100291.46;;;9.05;73.06
55517;BME280;41724;51.176;-0.708;2022-11-20T08:17:15;100295.74;;;8.68;74.62
55517;BME280;41724;51.176;-0.708;2022-11-20T08:19:42;100292.58;;;9.33;73.60
55517;BME280;41724;51.176;-0.708;2022-11-20T08:22:09;100287.72;;;9.26;72.35
55517;BME280;41724;51.176;-0.708;2022-11-20T08:24:38;100291.53;;;10.23;69.16
55517;BME280;41724;51.176;-0.708;2022-11-20T08:27:05;100293.44;;;9.39;72.00
55517;BME280;41724;51.176;-0.708;2022-11-20T08:29:32;100298.69;;;9.96;69.68
55517;BME280;41724;51.176;-0.708;2022-11-20T08:31:59;100300.05;;;10.29;67.82
55517;BME280;41724;51.176;-0.708;2022-11-20T08:34:26;100305.67;;;9.83;67.84
55517;BME280;41724;51.176;-0.708;2022-11-20T08:36:53;100313.31;;;10.48;67.42
55517;BME280;41724;51.176;-0.708;2022-11-20T08:39:21;100303.00;;;10.78;66.53
55517;BME280;41724;51.176;-0.708;2022-11-20T08:41:48;100312.30;;;10.41;66.04
55517;BME280;41724;51.176;-0.708;2022-11-20T08:44:15;100317.77;;;10.73;66.42
55517;BME280;41724;51.176;-0.708;2022-11-20T08:46:42;100319.31;;;10.37;66.41
55517;BME280;41724;51.176;-0.708;2022-11-20T08:49:10;100317.88;;;11.04;65.36
55517;BME280;41724;51.176;-0.708;2022-11-20T08:51:38;100314.70;;;10.39;66.52
55517;BME280;41724;51.176;-0.708;2022-11-20T08:54:06;100305.41;;;10.82;65.24
55517;BME280;41724;51.176;-0.708;2022-11-20T08:56:34;100310.13;;;11.31;65.35
55517;BME280;41724;51.176;-0.708;2022-11-20T08:59:01;100302.88;;;11.06;64.72
55517;BME280;41724;51.176;-0.708;2022-11-20T09:01:29;100309.26;;;11.10;63.83
55517;BME280;41724;51.176;-0.708;2022-11-20T09:03:56;100308.08;;;11.26;63.76
55517;BME280;41724;51.176;-0.708;2022-11-20T09:06:23;100322.43;;;10.87;64.80
55517;BME280;41724;51.176;-0.708;2022-11-20T09:08:52;100330.04;;;11.08;64.25
55517;BME280;41724;51.176;-0.708;2022-11-20T09:11:19;100334.87;;;10.48;65.18
55517;BME280;41724;51.176;-0.708;2022-11-20T09:13:46;100336.72;;;10.70;64.99
55517;BME280;41724;51.176;-0.708;2022-11-20T09:16:12;100341.51;;;10.54;64.50
55517;BME280;41724;51.176;-0.708;2022-11-20T09:18:40;100354.97;;;10.73;64.15
55517;BME280;41724;51.176;-0.708;2022-11-20T09:21:10;100358.19;;;10.00;66.36
55517;BME280;41724;51.176;-0.708;2022-11-20T09:23:38;100352.17;;;9.45;67.64
55517;BME280;41724;51.176;-0.708;2022-11-20T09:26:06;100355.94;;;10.11;68.10
55517;BME280;41724;51.176;-0.708;2022-11-20T09:28:34;100354.79;;;9.27;69.15
55517;BME280;41724;51.176;-0.708;2022-11-20T09:31:05;100348.16;;;9.82;67.17
55517;BME280;41724;51.176;-0.708;2022-11-20T09:33:32;100345.03;;;9.32;68.56
55517;BME280;41724;51.176;-0.708;2022-11-20T09:35:59;100343.05;;;9.50;68.26
55517;BME280;41724;51.176;-0.708;2022-11-20T09:38:26;100345.84;;;10.14;66.95
55517;BME280;41724;51.176;-0.708;2022-11-20T09:40:57;100337.94;;;10.62;65.19
55517;BME280;41724;51.176;-0.708;2022-11-20T09:43:37;100350.04;;;9.24;68.19
55517;BME280;41724;51.176;-0.708;2022-11-20T09:46:13;100351.73;;;9.25;68.94
55517;BME280;41724;51.176;-0.708;2022-11-20T09:49:11;100345.93;;;10.30;65.47
55517;BME280;41724;51.176;-0.708;2022-11-20T09:51:49;100345.62;;;10.43;64.50
55517;BME280;41724;51.176;-0.708;2022-11-20T09:54:21;100345.61;;;10.63;64.71
55517;BME280;41724;51.176;-0.708;2022-11-20T09:56:52;100347.57;;;11.18;64.05
55517;BME280;41724;51.176;-0.708;2022-11-20T09:59:30;100344.51;;;10.75;64.53
55517;BME280;41724;51.176;-0.708;2022-11-20T10:02:15;100337.90;;;9.43;66.84
55517;BME280;41724;51.176;-0.708;2022-11-20T10:04:46;100340.89;;;10.66;65.55
55517;BME280;41724;51.176;-0.708;2022-11-20T10:07:17;100338.76;;;10.49;65.78
55517;BME280;41724;51.176;-0.708;2022-11-20T10:09:52;100339.63;;;10.09;65.57
55517;BME280;41724;51.176;-0.708;2022-11-20T10:12:27;100340.50;;;10.54;64.59
55517;BME280;41724;51.176;-0.708;2022-11-20T10:15:09;100346.87;;;10.18;64.04
55517;BME280;41724;51.176;-0.708;2022-11-20T10:17:53;100342.53;;;11.33;64.58
55517;BME280;41724;51.176;-0.708;2022-11-20T10:20:29;100344.13;;;11.52;64.06
55517;BME280;41724;51.176;-0.708;2022-11-20T10:23:20;100342.65;;;11.18;63.72
55517;BME280;41724;51.176;-0.708;2022-11-20T10:26:02;100345.61;;;10.89;64.33
55517;BME280;41724;51.176;-0.708;2022-11-20T10:28:42;100348.13;;;10.73;64.72
55517;BME280;41724;51.176;-0.708;2022-11-20T10:31:26;100352.59;;;11.06;64.13
55517;BME280;41724;51.176;-0.708;2022-11-20T10:33:59;100357.21;;;11.29;64.39
55517;BME280;41724;51.176;-0.708;2022-11-20T10:36:32;100360.99;;;10.29;67.76
55517;BME280;41724;51.176;-0.708;2022-11-20T10:39:06;100366.77;;;10.27;66.11
55517;BME280;41724;51.176;-0.708;2022-11-20T10:41:39;100367.51;;;10.13;68.49
55517;BME280;41724;51.176;-0.708;2022-11-20T10:44:12;100373.89;;;9.69;69.46
55517;BME280;41724;51.176;-0.708;2022-11-20T10:46:44;100378.67;;;9.33;71.32
55517;BME280;41724;51.176;-0.708;2022-11-20T10:49:13;100374.91;;;9.96;69.93
55517;BME280;41724;51.176;-0.708;2022-11-20T10:51:53;100374.33;;;9.51;67.95
55517;BME280;41724;51.176;-0.708;2022-11-20T10:54:32;100369.17;;;9.81;67.28
55517;BME280;41724;51.176;-0.708;2022-11-20T10:57:07;100365.50;;;10.44;66.16
55517;BME280;41724;51.176;-0.708;2022-11-20T10:59:57;100366.44;;;10.76;65.35
55517;BME280;41724;51.176;-0.708;2022-11-20T11:02:34;100364.33;;;9.90;66.55
55517;BME280;41724;51.176;-0.708;2022-11-20T11:05:11;100368.88;;;10.73;66.80
55517;BME280;41724;51.176;-0.708;2022-11-20T11:07:41;100365.08;;;10.36;65.74
55517;BME280;41724;51.176;-0.708;2022-11-20T11:10:16;100366.38;;;10.61;66.59
55517;BME280;41724;51.176;-0.708;2022-11-20T11:12:45;100370.04;;;10.79;65.58
55517;BME280;41724;51.176;-0.708;2022-11-20T11:15:15;100372.98;;;10.58;66.14
55517;BME280;41724;51.176;-0.708;2022-11-20T11:17:51;100374.20;;;10.47;64.86
55517;BME280;41724;51.176;-0.708;2022-11-20T11:20:20;100373.48;;;10.10;65.62
55517;BME280;41724;51.176;-0.708;2022-11-20T11:22:49;100376.61;;;10.37;64.84
55517;BME280;41724;51.176;-0.708;2022-11-20T11:25:22;100376.43;;;10.47;64.79
55517;BME280;41724;51.176;-0.708;2022-11-20T11:27:50;100377.19;;;10.48;66.04
55517;BME280;41724;51.176;-0.708;2022-11-20T11:30:20;100375.76;;;10.41;65.19
55517;BME280;41724;51.176;-0.708;2022-11-20T11:32:47;100368.75;;;11.16;63.45
55517;BME280;41724;51.176;-0.708;2022-11-20T11:35:24;100371.87;;;9.81;65.77
55517;BME280;41724;51.176;-0.708;2022-11-20T11:37:53;100369.86;;;10.78;64.43
55517;BME280;41724;51.176;-0.708;2022-11-20T11:40:22;100371.28;;;11.49;60.97
55517;BME280;41724;51.176;-0.708;2022-11-20T11:42:54;100367.49;;;10.99;62.65
55517;BME280;41724;51.176;-0.708;2022-11-20T11:45:21;100369.78;;;10.58;63.83
55517;BME280;41724;51.176;-0.708;2022-11-20T11:47:50;100362.13;;;11.14;62.75
55517;BME280;41724;51.176;-0.708;2022-11-20T11:50:21;100362.14;;;11.12;60.34
55517;BME280;41724;51.176;-0.708;2022-11-20T11:52:56;100360.89;;;11.15;60.73
55517;BME280;41724;51.176;-0.708;2022-11-20T11:55:31;100357.96;;;11.58;59.99
55517;BME280;41724;51.176;-0.708;2022-11-20T11:58:11;100353.62;;;11.56;59.44
55517;BME280;41724;51.176;-0.708;2022-11-20T12:00:51;100355.95;;;11.28;57.75
55517;BME280;41724;51.176;-0.708;2022-11-20T12:03:27;100358.15;;;10.68;59.82
55517;BME280;41724;51.176;-0.708;2022-11-20T12:05:58;100360.01;;;10.49;60.71
55517;BME280;41724;51.176;-0.708;2022-11-20T12:08:31;100349.50;;;11.01;61.32
55517;BME280;41724;51.176;-0.708;2022-11-20T12:11:05;100352.80;;;11.01;59.85
55517;BME280;41724;51.176;-0.708;2022-11-20T12:13:47;100351.54;;;11.56;58.26
55517;BME280;41724;51.176;-0.708;2022-11-20T12:16:16;100352.47;;;11.18;57.24
55517;BME280;41724;51.176;-0.708;2022-11-20T12:18:51;100352.71;;;11.22;58.74
55517;BME280;41724;51.176;-0.708;2022-11-20T12:21:20;100353.15;;;11.92;55.94
55517;BME280;41724;51.176;-0.708;2022-11-20T12:24:02;100353.72;;;11.75;55.57
55517;BME280;41724;51.176;-0.708;2022-11-20T12:26:45;100357.70;;;11.77;57.11
55517;BME280;41724;51.176;-0.708;2022-11-20T12:29:24;100350.82;;;11.66;56.04
55517;BME280;41724;51.176;-0.708;2022-11-20T12:32:26;100353.08;;;11.85;56.93
55517;BME280;41724;51.176;-0.708;2022-11-20T12:35:04;100362.32;;;11.00;55.78
55517;BME280;41724;51.176;-0.708;2022-11-20T12:37:42;100361.20;;;11.55;54.66
55517;BME280;41724;51.176;-0.708;2022-11-20T12:40:27;100360.33;;;11.73;56.04
55517;BME280;41724;51.176;-0.708;2022-11-20T12:43:02;100359.35;;;12.31;54.42
55517;BME280;41724;51.176;-0.708;2022-11-20T12:45:48;100359.88;;;11.36;57.02
55517;BME280;41724;51.176;-0.708;2022-11-20T12:49:03;100358.14;;;11.57;56.42
55517;BME280;41724;51.176;-0.708;2022-11-20T12:51:45;100356.84;;;11.87;55.74
55517;BME280;41724;51.176;-0.708;2022-11-20T12:56:33;100353.79;;;12.88;55.00
55517;BME280;41724;51.176;-0.708;2022-11-20T12:59:16;100360.80;;;12.96;54.66